createdAt,value
2018-09-15T00:00:38.843Z,30.03
2018-09-15T00:03:06.916Z,29.17
2018-09-15T00:05:35.391Z,26.63
2018-09-15T00:08:03.125Z,26.50
2018-09-15T00:10:30.778Z,28.00
2018-09-15T00:12:58.561Z,27.73
2018-09-15T00:15:26.182Z,22.73
2018-09-15T00:17:54.614Z,24.23
2018-09-15T00:20:22.545Z,24.40
2018-09-15T00:22:50.096Z,23.43
2018-09-15T00:25:18.506Z,27.43
2018-09-15T00:27:46.380Z,27.80
2018-09-15T00:30:14.805Z,24.13
2018-09-15T00:32:42.490Z,26.27
2018-09-15T00:35:10.242Z,25.80
2018-09-15T00:37:38.670Z,23.87
2018-09-15T00:40:06.637Z,21.90
2018-09-15T00:42:34.259Z,24.40
2018-09-15T00:45:02.064Z,23.60
2018-09-15T00:47:29.692Z,24.63
2018-09-15T00:49:57.468Z,24.30
2018-09-15T00:52:25.112Z,23.70
2018-09-15T00:54:52.671Z,23.10
2018-09-15T00:57:20.259Z,27.80
2018-09-15T00:59:47.906Z,23.90
2018-09-15T01:02:15.679Z,23.57
2018-09-15T01:04:43.444Z,22.80
2018-09-15T01:07:11.012Z,23.93
2018-09-15T01:09:38.612Z,29.43
2018-09-15T01:12:06.387Z,27.30
2018-09-15T01:14:34.531Z,24.70
2018-09-15T01:17:02.948Z,33.80
2018-09-15T01:19:30.571Z,35.33
2018-09-15T01:21:58.180Z,29.90
2018-09-15T01:24:26.393Z,26.23
2018-09-15T01:26:54.169Z,25.83
2018-09-15T01:29:22.349Z,25.93
2018-09-15T01:31:50.015Z,25.60
2018-09-15T01:34:17.644Z,28.43
2018-09-15T01:36:45.316Z,26.13
2018-09-15T01:39:13.601Z,27.50
2018-09-15T01:41:41.328Z,24.63
2018-09-15T01:44:09.003Z,36.23
2018-09-15T01:46:36.656Z,30.60
2018-09-15T01:49:04.971Z,28.60
2018-09-15T01:51:32.843Z,32.00
2018-09-15T01:56:33.235Z,28.33
2018-09-15T01:59:00.788Z,28.87
2018-09-15T02:01:28.621Z,28.80
2018-09-15T02:03:56.842Z,29.97
2018-09-15T02:06:24.647Z,30.40
2018-09-15T02:08:52.248Z,27.30
2018-09-15T02:11:20.931Z,27.63
2018-09-15T02:13:48.567Z,25.30
2018-09-15T02:16:16.227Z,27.03
2018-09-15T02:18:44.068Z,29.83
2018-09-15T02:21:11.767Z,25.80
2018-09-15T02:23:39.403Z,28.33
2018-09-15T02:26:07.435Z,27.83
2018-09-15T02:28:34.958Z,27.77
2018-09-15T02:31:02.630Z,31.40
2018-09-15T02:33:30.148Z,29.37
2018-09-15T02:35:58.024Z,28.70
2018-09-15T02:38:25.754Z,30.40
2018-09-15T02:40:53.408Z,29.03
2018-09-15T02:43:21.220Z,34.90
2018-09-15T02:45:48.852Z,29.20
2018-09-15T02:48:16.395Z,32.53
2018-09-15T02:50:44.022Z,31.30
2018-09-15T02:53:11.772Z,28.90
2018-09-15T02:55:39.559Z,25.27
2018-09-15T02:58:07.212Z,29.47
2018-09-15T03:00:35.174Z,28.33
2018-09-15T03:03:02.911Z,31.10
2018-09-15T03:05:30.625Z,26.00
2018-09-15T03:07:58.284Z,29.80
2018-09-15T03:10:26.641Z,26.03
2018-09-15T03:12:54.440Z,29.13
2018-09-15T03:15:22.145Z,29.10
2018-09-15T03:17:49.924Z,28.60
2018-09-15T03:20:17.520Z,32.03
2018-09-15T03:22:45.979Z,30.70
2018-09-15T03:25:13.780Z,26.50
2018-09-15T03:27:41.600Z,25.67
2018-09-15T03:30:09.285Z,29.13
2018-09-15T03:32:36.843Z,27.70
2018-09-15T03:35:04.431Z,28.63
2018-09-15T03:37:32.320Z,29.03
2018-09-15T03:40:00.129Z,29.97
2018-09-15T03:42:27.728Z,30.80
2018-09-15T03:44:56.095Z,28.37
2018-09-15T03:47:23.835Z,31.83
2018-09-15T03:49:51.479Z,29.77
2018-09-15T03:52:19.220Z,28.00
2018-09-15T03:54:46.823Z,29.73
2018-09-15T03:57:15.111Z,30.53
2018-09-15T03:59:42.983Z,35.70
2018-09-15T04:02:11.549Z,28.70
2018-09-15T04:04:39.145Z,30.57
2018-09-15T04:07:06.880Z,30.00
2018-09-15T04:09:35.221Z,30.40
2018-09-15T04:12:02.819Z,31.03
2018-09-15T04:14:30.448Z,28.43
2018-09-15T04:16:58.848Z,28.53
2018-09-15T04:19:26.535Z,30.40
2018-09-15T04:21:54.316Z,29.33
2018-09-15T04:24:22.099Z,31.43
2018-09-15T04:26:50.357Z,31.83
2018-09-15T04:29:17.980Z,26.87
2018-09-15T04:31:45.643Z,32.07
2018-09-15T04:34:13.368Z,33.60
2018-09-15T04:36:41.081Z,32.03
2018-09-15T04:39:10.533Z,31.43
2018-09-15T04:41:38.340Z,32.93
2018-09-15T04:44:06.256Z,29.30
2018-09-15T04:46:34.104Z,33.40
2018-09-15T04:49:01.748Z,32.47
2018-09-15T04:51:29.713Z,31.40
2018-09-15T04:53:57.403Z,31.77
2018-09-15T04:56:25.035Z,32.60
2018-09-15T04:58:52.861Z,32.00
2018-09-15T05:01:21.883Z,29.00
2018-09-15T05:03:49.577Z,32.40
2018-09-15T05:06:17.152Z,33.57
2018-09-15T05:08:44.868Z,33.40
2018-09-15T05:11:12.801Z,32.27
2018-09-15T05:13:40.583Z,31.37
2018-09-15T05:16:08.149Z,35.10
2018-09-15T05:18:36.101Z,30.40
2018-09-15T05:21:03.892Z,27.00
2018-09-15T05:23:31.718Z,26.50
2018-09-15T05:25:59.480Z,30.90
2018-09-15T05:28:27.144Z,31.20
2018-09-15T05:30:54.714Z,27.90
2018-09-15T05:33:22.378Z,30.53
2018-09-15T05:35:50.188Z,32.30
2018-09-15T05:38:17.803Z,27.50
2018-09-15T05:40:45.316Z,26.53
2018-09-15T05:43:12.919Z,26.87
2018-09-15T05:45:40.581Z,29.13
2018-09-15T05:48:08.172Z,25.63
2018-09-15T05:50:35.739Z,29.57
2018-09-15T05:53:03.564Z,26.67
2018-09-15T05:55:31.156Z,26.90
2018-09-15T05:57:58.944Z,25.17
2018-09-15T06:00:26.845Z,26.60
2018-09-15T06:02:54.725Z,25.73
2018-09-15T06:05:22.324Z,25.30
2018-09-15T06:07:50.053Z,25.57
2018-09-15T06:10:17.711Z,24.30
2018-09-15T06:12:46.208Z,23.10
2018-09-15T06:15:13.892Z,22.90
2018-09-15T06:17:41.625Z,21.80
2018-09-15T06:20:09.271Z,23.93
2018-09-15T06:22:36.957Z,25.57
2018-09-15T06:25:04.712Z,22.73
2018-09-15T06:27:32.352Z,22.07
2018-09-15T06:29:59.901Z,22.77
2018-09-15T06:32:28.260Z,23.30
2018-09-15T06:34:56.745Z,20.37
2018-09-15T06:37:24.357Z,21.00
2018-09-15T06:39:52.039Z,22.80
2018-09-15T06:42:19.908Z,21.33
2018-09-15T06:44:47.479Z,21.10
2018-09-15T06:47:15.099Z,21.23
2018-09-15T06:49:43.634Z,22.00
2018-09-15T06:52:11.396Z,21.90
2018-09-15T06:54:39.094Z,21.83
2018-09-15T06:57:08.145Z,20.33
2018-09-15T06:59:35.823Z,21.27
2018-09-15T07:02:03.548Z,21.23
2018-09-15T07:04:31.284Z,18.40
2018-09-15T07:06:58.984Z,21.43
2018-09-15T07:09:27.305Z,20.40
2018-09-15T07:11:55.201Z,18.03
2018-09-15T07:14:22.971Z,20.03
2018-09-15T07:16:50.804Z,19.53
2018-09-15T07:19:19.132Z,21.33
2018-09-15T07:21:47.103Z,19.30
2018-09-15T07:24:14.791Z,17.00
2018-09-15T07:26:42.433Z,20.30
2018-09-15T07:29:10.049Z,17.50
2018-09-15T07:31:37.794Z,18.00
2018-09-15T07:34:06.314Z,19.23
2018-09-15T07:36:34.067Z,17.77
2018-09-15T07:39:07.484Z,17.83
2018-09-15T07:41:35.151Z,18.67
2018-09-15T07:44:02.792Z,17.90
2018-09-15T07:46:30.766Z,16.73
2018-09-15T07:48:58.579Z,17.40
2018-09-15T07:51:26.189Z,16.03
2018-09-15T07:53:54.201Z,17.47
2018-09-15T07:56:22.659Z,16.80
2018-09-15T07:58:50.232Z,17.07
2018-09-15T08:01:18.091Z,17.47
2018-09-15T08:03:46.375Z,17.90
2018-09-15T08:06:14.261Z,16.37
2018-09-15T08:08:42.959Z,17.87
2018-09-15T08:11:10.725Z,16.27
2018-09-15T08:13:38.311Z,16.53
2018-09-15T08:16:06.271Z,16.30
2018-09-15T08:18:34.170Z,16.07
2018-09-15T08:21:02.031Z,15.50
2018-09-15T08:23:29.915Z,16.90
2018-09-15T08:25:57.853Z,15.50
2018-09-15T08:28:26.199Z,15.30
2018-09-15T08:30:53.891Z,15.53
2018-09-15T08:33:21.604Z,15.07
2018-09-15T08:35:49.279Z,16.00
2018-09-15T08:38:16.940Z,14.87
2018-09-15T08:40:44.569Z,15.23
2018-09-15T08:43:12.369Z,14.60
2018-09-15T08:45:41.252Z,15.17
2018-09-15T08:48:09.129Z,14.60
2018-09-15T08:50:37.952Z,14.93
2018-09-15T08:53:05.648Z,15.33
2018-09-15T08:55:33.207Z,15.80
2018-09-15T08:58:00.919Z,15.73
2018-09-15T09:00:28.587Z,15.77
2018-09-15T09:02:56.912Z,14.93
2018-09-15T09:05:25.167Z,14.20
2018-09-15T09:07:52.736Z,12.80
2018-09-15T09:10:20.349Z,14.27
2018-09-15T09:12:48.036Z,13.67
2018-09-15T09:15:15.960Z,11.00
2018-09-15T09:17:43.667Z,12.30
2018-09-15T09:20:11.384Z,11.43
2018-09-15T09:22:39.106Z,11.60
2018-09-15T09:25:07.015Z,12.83
2018-09-15T09:27:35.447Z,12.40
2018-09-15T09:30:03.293Z,12.20
2018-09-15T09:32:31.343Z,11.67
2018-09-15T09:34:59.105Z,13.00
2018-09-15T09:37:26.676Z,11.53
2018-09-15T09:39:54.524Z,12.90
2018-09-15T09:42:22.392Z,13.80
2018-09-15T09:44:50.212Z,13.10
2018-09-15T09:47:17.872Z,12.77
2018-09-15T09:49:45.772Z,14.23
2018-09-15T09:52:13.821Z,12.57
2018-09-15T09:54:41.453Z,15.47
2018-09-15T09:57:09.037Z,14.90
2018-09-15T09:59:37.136Z,12.70
2018-09-15T10:02:10.755Z,14.13
2018-09-15T10:04:39.280Z,12.30
2018-09-15T10:07:07.737Z,12.30
2018-09-15T10:09:35.682Z,13.37
2018-09-15T10:12:03.662Z,14.37
2018-09-15T10:14:31.782Z,14.60
2018-09-15T10:16:59.464Z,13.40
2018-09-15T10:19:27.224Z,11.63
2018-09-15T10:21:54.891Z,11.73
2018-09-15T10:24:22.600Z,11.10
2018-09-15T10:26:50.364Z,10.40
2018-09-15T10:29:18.525Z,11.20
2018-09-15T10:31:46.237Z,10.80
2018-09-15T10:34:14.200Z,12.37
2018-09-15T10:36:42.259Z,10.40
2018-09-15T10:39:10.720Z,11.07
2018-09-15T10:41:39.210Z,10.07
2018-09-15T10:44:07.183Z,9.70
2018-09-15T10:46:34.890Z,9.37
2018-09-15T10:49:03.064Z,7.43
2018-09-15T10:51:30.624Z,8.60
2018-09-15T10:53:58.563Z,10.40
2018-09-15T10:56:26.207Z,11.00
2018-09-15T10:58:54.254Z,10.13
2018-09-15T11:01:22.718Z,10.10
2018-09-15T11:03:50.351Z,9.50
2018-09-15T11:06:18.196Z,9.87
2018-09-15T11:08:45.842Z,10.33
2018-09-15T11:11:13.992Z,11.77
2018-09-15T11:13:41.581Z,9.33
2018-09-15T11:16:09.139Z,8.60
2018-09-15T11:18:36.931Z,12.93
2018-09-15T11:21:04.879Z,9.63
2018-09-15T11:23:32.676Z,9.43
2018-09-15T11:26:01.224Z,9.53
2018-09-15T11:28:29.621Z,9.30
2018-09-15T11:30:57.935Z,10.10
2018-09-15T11:33:26.024Z,9.23
2018-09-15T11:35:53.599Z,8.77
2018-09-15T11:38:21.395Z,10.13
2018-09-15T11:40:49.106Z,9.00
2018-09-15T11:43:16.884Z,9.23
2018-09-15T11:45:44.632Z,9.77
2018-09-15T11:48:12.508Z,10.57
2018-09-15T11:50:40.515Z,9.87
2018-09-15T11:53:08.915Z,10.33
2018-09-15T11:55:36.696Z,10.43
2018-09-15T11:58:05.304Z,9.93
2018-09-15T12:00:35.321Z,9.77
2018-09-15T12:03:03.242Z,6.37
2018-09-15T12:05:30.889Z,6.23
2018-09-15T12:07:59.316Z,6.67
2018-09-15T12:10:27.549Z,7.63
2018-09-15T12:12:55.365Z,8.40
2018-09-15T12:15:23.175Z,6.30
2018-09-15T12:17:50.841Z,8.17
2018-09-15T12:20:18.789Z,8.97
2018-09-15T12:22:46.664Z,7.00
2018-09-15T12:25:14.448Z,7.60
2018-09-15T12:27:42.140Z,6.47
2018-09-15T12:30:09.912Z,6.50
2018-09-15T12:32:37.659Z,6.20
2018-09-15T12:35:05.600Z,7.40
2018-09-15T12:37:33.417Z,7.60
2018-09-15T12:40:00.983Z,6.90
2018-09-15T12:42:28.639Z,6.57
2018-09-15T12:44:56.404Z,6.70
2018-09-15T12:47:24.004Z,6.77
2018-09-15T12:49:51.809Z,6.20
2018-09-15T12:52:19.737Z,5.03
2018-09-15T12:54:47.410Z,7.10
2018-09-15T12:57:15.683Z,6.80
2018-09-15T12:59:43.323Z,7.10
2018-09-15T13:02:11.102Z,7.60
2018-09-15T13:04:39.030Z,6.90
2018-09-15T13:07:06.944Z,5.80
2018-09-15T13:09:35.568Z,6.30
2018-09-15T13:12:03.377Z,5.93
2018-09-15T13:14:31.007Z,7.20
2018-09-15T13:16:58.847Z,6.40
2018-09-15T13:19:27.092Z,7.20
2018-09-15T13:21:55.290Z,6.57
2018-09-15T13:24:23.006Z,5.70
2018-09-15T13:26:50.659Z,7.03
2018-09-15T13:29:19.010Z,5.50
2018-09-15T13:31:46.617Z,6.57
2018-09-15T13:34:14.275Z,5.83
2018-09-15T13:36:42.061Z,6.60
2018-09-15T13:39:11.035Z,7.03
2018-09-15T13:41:38.699Z,6.23
2018-09-15T13:44:06.573Z,5.83
2018-09-15T13:46:34.359Z,5.80
2018-09-15T13:49:02.136Z,5.70
2018-09-15T13:51:29.671Z,5.97
2018-09-15T13:54:01.403Z,5.87
2018-09-15T13:56:29.119Z,6.33
2018-09-15T13:58:56.776Z,5.80
2018-09-15T14:01:24.319Z,5.43
2018-09-15T14:03:52.124Z,5.93
2018-09-15T14:06:19.949Z,6.00
2018-09-15T14:08:48.365Z,6.27
2018-09-15T14:11:16.112Z,5.63
2018-09-15T14:13:44.040Z,4.50
2018-09-15T14:16:11.652Z,5.43
2018-09-15T14:18:39.825Z,4.30
2018-09-15T14:21:08.215Z,4.60
2018-09-15T14:23:35.955Z,4.70
2018-09-15T14:26:03.677Z,4.77
2018-09-15T14:28:31.384Z,4.63
2018-09-15T14:30:59.785Z,5.30
2018-09-15T14:33:27.661Z,5.67
2018-09-15T14:35:55.341Z,4.70
2018-09-15T14:38:22.932Z,5.10
2018-09-15T14:40:50.567Z,4.90
2018-09-15T14:43:18.396Z,5.40
2018-09-15T14:45:46.129Z,4.83
2018-09-15T14:48:13.810Z,5.07
2018-09-15T14:50:41.328Z,5.60
2018-09-15T14:53:08.889Z,5.03
2018-09-15T14:55:36.687Z,5.77
2018-09-15T14:58:04.604Z,5.17
2018-09-15T15:00:32.244Z,4.63
2018-09-15T15:03:06.445Z,5.00
2018-09-15T15:05:35.281Z,4.90
2018-09-15T15:08:02.940Z,6.23
2018-09-15T15:10:30.553Z,6.03
2018-09-15T15:12:58.499Z,5.17
2018-09-15T15:15:26.366Z,7.60
2018-09-15T15:17:54.141Z,6.23
2018-09-15T15:20:21.724Z,5.00
2018-09-15T15:22:49.292Z,5.03
2018-09-15T15:25:17.060Z,5.07
2018-09-15T15:27:45.206Z,4.20
2018-09-15T15:30:13.185Z,4.10
2018-09-15T15:32:40.815Z,5.80
2018-09-15T15:35:08.694Z,5.57
2018-09-15T15:37:37.030Z,5.07
2018-09-15T15:40:04.831Z,5.67
2018-09-15T15:42:32.448Z,4.20
2018-09-15T15:45:00.453Z,6.30
2018-09-15T15:47:28.771Z,5.30
2018-09-15T15:49:56.569Z,4.23
2018-09-15T15:52:24.329Z,4.40
2018-09-15T15:54:52.052Z,4.20
2018-09-15T15:57:19.884Z,4.63
2018-09-15T15:59:47.616Z,4.30
2018-09-15T16:02:15.368Z,4.60
2018-09-15T16:04:42.983Z,5.47
2018-09-15T16:07:10.563Z,4.67
2018-09-15T16:09:38.247Z,4.10
2018-09-15T16:12:05.829Z,4.07
2018-09-15T16:14:37.905Z,4.43
2018-09-15T16:17:05.628Z,5.03
2018-09-15T16:19:33.179Z,4.23
2018-09-15T16:22:00.901Z,4.40
2018-09-15T16:24:28.539Z,3.50
2018-09-15T16:26:56.212Z,4.20
2018-09-15T16:29:23.765Z,5.20
2018-09-15T16:31:51.548Z,8.63
2018-09-15T16:34:19.207Z,5.90
2018-09-15T16:36:48.068Z,6.80
2018-09-15T16:39:15.753Z,6.40
2018-09-15T16:41:43.518Z,6.00
2018-09-15T16:44:11.440Z,5.83
2018-09-15T16:46:39.260Z,5.50
2018-09-15T16:49:07.319Z,8.10
2018-09-15T16:51:35.831Z,6.40
2018-09-15T16:54:04.260Z,5.97
2018-09-15T16:56:31.867Z,6.43
2018-09-15T16:58:59.628Z,6.47
2018-09-15T17:01:27.296Z,5.30
2018-09-15T17:03:55.145Z,5.87
2018-09-15T17:06:23.684Z,7.93
2018-09-15T17:08:52.091Z,6.40
2018-09-15T17:11:19.821Z,5.93
2018-09-15T17:13:47.832Z,5.73
2018-09-15T17:16:16.425Z,6.23
2018-09-15T17:18:44.270Z,6.00
2018-09-15T17:21:12.882Z,6.10
2018-09-15T17:23:40.553Z,7.37
2018-09-15T17:26:08.326Z,6.47
2018-09-15T17:28:35.942Z,7.20
2018-09-15T17:31:03.902Z,7.77
2018-09-15T17:33:31.936Z,7.87
2018-09-15T17:35:59.687Z,10.10
2018-09-15T17:38:27.275Z,7.70
2018-09-15T17:40:54.968Z,9.07
2018-09-15T17:43:22.658Z,9.20
2018-09-15T17:45:50.861Z,9.23
2018-09-15T17:48:18.630Z,9.27
2018-09-15T17:50:46.363Z,9.43
2018-09-15T17:53:13.948Z,8.43
2018-09-15T17:55:41.658Z,9.00
2018-09-15T17:58:09.464Z,9.30
2018-09-15T18:00:37.447Z,8.20
2018-09-15T18:03:05.200Z,7.60
2018-09-15T18:05:32.999Z,7.03
2018-09-15T18:08:00.763Z,7.00
2018-09-15T18:10:28.479Z,9.30
2018-09-15T18:12:56.667Z,6.83
2018-09-15T18:15:24.475Z,7.97
2018-09-15T18:17:52.106Z,7.50
2018-09-15T18:20:19.827Z,7.23
2018-09-15T18:22:47.744Z,8.67
2018-09-15T18:25:15.475Z,8.07
2018-09-15T18:27:43.299Z,6.83
2018-09-15T18:30:10.907Z,9.87
2018-09-15T18:32:38.905Z,10.53
2018-09-15T18:35:07.384Z,8.83
2018-09-15T18:37:35.123Z,8.23
2018-09-15T18:40:03.216Z,7.80
2018-09-15T18:42:30.843Z,7.60
2018-09-15T18:44:58.619Z,8.50
2018-09-15T18:47:27.183Z,8.37
2018-09-15T18:49:55.877Z,8.50
2018-09-15T18:52:23.479Z,7.90
2018-09-15T18:54:51.354Z,7.70
2018-09-15T18:57:18.988Z,7.97
2018-09-15T18:59:46.747Z,8.00
2018-09-15T19:02:15.188Z,7.70
2018-09-15T19:04:42.811Z,10.60
2018-09-15T19:07:10.933Z,8.87
2018-09-15T19:09:38.861Z,9.97
2018-09-15T19:12:06.923Z,8.93
2018-09-15T19:14:34.650Z,9.53
2018-09-15T19:17:02.406Z,10.30
2018-09-15T19:19:30.105Z,11.77
2018-09-15T19:21:57.944Z,12.27
2018-09-15T19:24:25.557Z,11.93
2018-09-15T19:26:53.201Z,10.50
2018-09-15T19:29:20.952Z,8.77
2018-09-15T19:31:48.747Z,8.30
2018-09-15T19:34:16.349Z,8.20
2018-09-15T19:36:43.948Z,8.80
2018-09-15T19:39:13.808Z,8.73
2018-09-15T19:41:42.363Z,8.83
2018-09-15T19:44:10.818Z,8.50
2018-09-15T19:46:39.029Z,8.80
2018-09-15T19:49:07.729Z,8.70
2018-09-15T19:51:35.371Z,8.80
2018-09-15T19:54:03.165Z,8.23
2018-09-15T19:56:30.751Z,8.87
2018-09-15T19:58:58.492Z,7.70
2018-09-15T20:01:26.368Z,8.60
2018-09-15T20:03:54.081Z,7.97
2018-09-15T20:06:21.968Z,8.00
2018-09-15T20:08:50.079Z,8.33
2018-09-15T20:11:18.119Z,9.20
2018-09-15T20:13:45.863Z,9.07
2018-09-15T20:16:12.471Z,8.03
2018-09-15T20:18:38.940Z,7.90
2018-09-15T20:21:06.068Z,8.30
2018-09-15T20:23:33.658Z,8.53
2018-09-15T20:26:01.343Z,8.77
2018-09-15T20:28:29.139Z,8.93
2018-09-15T20:30:56.848Z,9.27
2018-09-15T20:33:24.454Z,11.53
2018-09-15T20:35:52.018Z,8.33
2018-09-15T20:38:19.716Z,8.57
2018-09-15T20:40:47.489Z,9.10
2018-09-15T20:43:15.382Z,9.00
2018-09-15T20:45:43.279Z,9.07
2018-09-15T20:48:10.952Z,8.30
2018-09-15T20:50:38.508Z,9.67
2018-09-15T20:53:06.078Z,9.10
2018-09-15T20:55:34.682Z,9.00
2018-09-15T20:58:02.491Z,9.30
2018-09-15T21:00:30.705Z,8.23
2018-09-15T21:02:58.540Z,8.87
2018-09-15T21:05:26.427Z,8.80
2018-09-15T21:07:54.274Z,9.97
2018-09-15T21:10:22.020Z,10.07
2018-09-15T21:12:49.599Z,9.87
2018-09-15T21:15:17.509Z,9.97
2018-09-15T21:17:45.205Z,8.93
2018-09-15T21:20:13.095Z,9.70
2018-09-15T21:22:40.863Z,10.13
2018-09-15T21:25:08.492Z,11.13
2018-09-15T21:27:36.383Z,10.87
2018-09-15T21:30:04.600Z,10.23
2018-09-15T21:32:32.398Z,10.33
2018-09-15T21:35:00.318Z,10.73
2018-09-15T21:37:28.111Z,9.90
2018-09-15T21:39:55.796Z,10.40
2018-09-15T21:42:23.548Z,11.07
2018-09-15T21:44:51.165Z,9.73
2018-09-15T21:47:18.912Z,10.17
2018-09-15T21:49:46.483Z,9.80
2018-09-15T21:52:14.307Z,10.83
2018-09-15T21:54:41.947Z,11.63
2018-09-15T21:57:09.873Z,10.93
2018-09-15T21:59:37.503Z,10.80
2018-09-15T22:02:05.085Z,11.20
2018-09-15T22:04:32.828Z,11.63
2018-09-15T22:07:00.632Z,10.67
2018-09-15T22:09:28.316Z,9.60
2018-09-15T22:11:56.031Z,9.90
2018-09-15T22:14:23.685Z,11.07
2018-09-15T22:16:51.367Z,10.37
2018-09-15T22:19:19.385Z,11.70
2018-09-15T22:21:47.051Z,10.93
2018-09-15T22:24:14.720Z,10.13
2018-09-15T22:26:42.337Z,10.43
2018-09-15T22:29:10.244Z,12.03
2018-09-15T22:31:37.869Z,12.73
2018-09-15T22:34:05.754Z,11.20
2018-09-15T22:36:33.319Z,11.63
2018-09-15T22:39:00.883Z,11.60
2018-09-15T22:41:28.555Z,11.10
2018-09-15T22:43:56.947Z,11.57
2018-09-15T22:46:24.595Z,10.40
2018-09-15T22:48:52.268Z,11.83
2018-09-15T22:51:19.918Z,12.20
2018-09-15T22:53:47.550Z,11.17
2018-09-15T22:56:15.436Z,11.17
2018-09-15T22:58:42.976Z,12.40
2018-09-15T23:01:10.616Z,10.80
2018-09-15T23:03:38.245Z,12.47
2018-09-15T23:06:06.281Z,11.63
2018-09-15T23:08:34.094Z,12.03
2018-09-15T23:11:01.712Z,11.47
2018-09-15T23:13:29.443Z,11.23
2018-09-15T23:15:57.160Z,11.57
2018-09-15T23:18:24.760Z,11.57
2018-09-15T23:20:52.439Z,11.23
2018-09-15T23:23:20.239Z,11.90
2018-09-15T23:25:47.836Z,13.43
2018-09-15T23:28:15.481Z,11.70
2018-09-15T23:30:43.015Z,11.90
2018-09-15T23:33:10.677Z,12.57
2018-09-15T23:35:38.491Z,10.40
2018-09-15T23:38:06.224Z,12.50
2018-09-15T23:40:34.472Z,13.03
2018-09-15T23:43:02.316Z,11.87
2018-09-15T23:45:29.922Z,11.60
2018-09-15T23:47:57.592Z,11.97
2018-09-15T23:50:25.232Z,11.57
2018-09-15T23:52:53.649Z,13.27
2018-09-15T23:55:21.384Z,13.33
2018-09-15T23:57:48.975Z,12.77
